• Join FlightAware (Why Join?)
  • Login
  • US Flag 
05:39PM EDT


 

Airport Tracker/Info


-or-


 

Live Flight TrackerFlight Track Log ✈ N75ZM ✈ 12-Aug-2013 ✈ KCHA - KECP

Flight Track Log - Related Links

Times and Time Zones

All times are in EDT time to prevent confusion due to time zone crossing. See the N75ZM flight status page for this flight to view local times or setup timezone preferences in your user account.

Time Position Orientation Groundspeed Altitude Reporting Facility
EDT Latitude Longitude Course Direction KTS MPH feet Rate Location/Type
07:12PM 34.8394 -85.4376 225° Southwest  Level FlightAware Approximate
07:13PM 34.8070 -85.4776 225° Southwest  Level FlightAware Approximate
07:14PM 34.7746 -85.5175 225° Southwest  Level FlightAware Approximate
07:15PM 34.7421 -85.5574 225° Southwest  Level FlightAware Approximate
07:16PM 34.7097 -85.5972 225° Southwest  Level FlightAware Approximate
07:17PM 34.6773 -85.6370 225° Southwest  Level FlightAware Approximate
07:18PM 34.6454 -85.6775 227° Southwest  Level FlightAware Approximate
07:19PM 34.6138 -85.7183 227° Southwest  Level FlightAware Approximate
07:19PM 34.8119 -85.5389 227° Southwest 154 177 6,100  Level Atlanta Center
07:20PM 34.5822 -85.7591 227° Southwest  Level FlightAware Approximate
07:20PM 34.7700 -85.5483 190° South 156 180 6,100  Level Atlanta Center
07:21PM 34.5506 -85.7998 227° Southwest  Level FlightAware Approximate
07:21PM 34.7261 -85.5603 193° South 156 180 6,100  Level Atlanta Center
07:22PM 34.5190 -85.8406 227° Southwest  Level FlightAware Approximate
07:22PM 34.6864 -85.5747 197° South 156 180 6,100  Level Atlanta Center
07:23PM 34.4874 -85.8812 227° Southwest  Level FlightAware Approximate
07:23PM 34.6422 -85.5864 192° South 161 185 6,200  Level Atlanta Center
07:24PM 34.4557 -85.9219 227° Southwest  Level FlightAware Approximate
07:24PM 34.6003 -85.6008 196° South 166 191 6,200  Level Atlanta Center
07:25PM 34.5564 -85.6128 193° South 166 191 6,100 -60 Descending Atlanta Center
07:26PM 34.5125 -85.6269 195° South 166 191 6,100  Level Atlanta Center
07:27PM 34.4706 -85.6389 193° South 166 191 6,100  Level Atlanta Center
07:28PM 34.4264 -85.6531 195° South 166 191 6,100  Level Atlanta Center
07:29PM 34.3825 -85.6672 195° South 166 191 6,200  Climbing Atlanta Center
07:30PM 34.3406 -85.6767 191° South 161 185 6,100 -60 Descending Atlanta Center
07:31PM 34.2986 -85.6908 196° South 161 185 6,100  Level Atlanta Center
07:32PM 34.2547 -85.7050 195° South 165 190 6,100  Level Atlanta Center
07:33PM 34.2106 -85.7192 195° South 165 190 6,100  Level Atlanta Center
07:34PM 34.1625 -85.7333 194° South 160 184 6,100  Level Atlanta Center
07:35PM 34.1225 -85.7475 196° South 160 184 6,100  Level Atlanta Center
07:36PM 34.0786 -85.7617 195° South 165 190 6,100  Level Atlanta Center
07:37PM 34.0325 -85.7733 192° South 160 184 6,100  Level Atlanta Center
07:38PM 33.9928 -85.7850 194° South 165 190 6,100  Level Atlanta Center
07:39PM 33.9486 -85.8017 197° South 165 190 6,100  Level Atlanta Center
07:40PM 33.9047 -85.8133 192° South 165 190 6,100  Level Atlanta Center
07:41PM 33.8586 -85.8250 192° South 165 190 6,100  Level Atlanta Center
07:42PM 33.8144 -85.8414 197° South 165 190 6,100  Level Atlanta Center
07:43PM 33.7706 -85.8531 192° South 165 190 6,100  Level Atlanta Center
07:44PM 33.7244 -85.8694 196° South 165 190 6,100  Level Atlanta Center
07:45PM 33.6844 -85.8811 194° South 165 190 6,100  Level Atlanta Center
07:46PM 33.6383 -85.8953 194° South 165 190 6,100  Level Atlanta Center
07:47PM 33.5942 -85.9092 195° South 165 190 6,100  Level Atlanta Center
07:48PM 33.5481 -85.9231 194° South 159 183 6,100  Level Atlanta Center
07:49PM 33.5000 -85.9322 189° South 159 183 6,100  Level Atlanta Center
07:50PM 33.4581 -85.9486 198° South 159 183 6,100  Level Atlanta Center
07:51PM 33.4119 -85.9625 194° South 159 183 6,100  Level Atlanta Center
07:52PM 33.3700 -85.9739 193° South 159 183 6,100  Level Atlanta Center
07:53PM 33.3322 -85.9856 194° South 170 196 6,100  Level Atlanta Center
07:54PM 33.2903 -85.9994 195° South 164 189 6,100  Level Atlanta Center
07:55PM 33.2483 -86.0111 193° South 164 189 6,100  Level Atlanta Center
07:56PM 33.2064 -86.0250 195° South 164 189 6,100  Level Atlanta Center
07:57PM 33.1622 -86.0364 192° South 164 189 6,100  Level Atlanta Center
07:58PM 33.1183 -86.0503 195° South 164 189 6,100  Level Atlanta Center
07:59PM 33.0764 -86.0642 196° South 164 189 6,100  Level Atlanta Center
08:00PM 33.0322 -86.0756 192° South 164 189 6,100  Level Atlanta Center
08:01PM 32.9861 -86.0894 194° South 164 189 6,100  Level Atlanta Center
08:02PM 32.9442 -86.1033 196° South 164 189 6,100  Level Atlanta Center
08:03PM 32.8981 -86.1169 194° South 164 189 6,100  Level Atlanta Center
08:04PM 32.8539 -86.1308 195° South 164 189 6,100  Level Atlanta Center
08:05PM 32.8061 -86.1247 174° South 164 189 6,100  Level Atlanta Center
08:07PM 32.7250 -86.1513 195° South  Level FlightAware Approximate
08:14PM 32.4311 -86.2471 195° South  Level FlightAware Approximate
08:15PM 32.3891 -86.2608 195° South  Level FlightAware Approximate
08:16PM 32.3471 -86.2744 195° South  Level FlightAware Approximate
08:17PM 32.3051 -86.2880 195° South  Level FlightAware Approximate
08:18PM 32.2631 -86.3016 195° South  Level FlightAware Approximate
08:18PM 32.1922 -86.0422 165° South 169 194 6,100  Level Jacksonville Center
08:19PM 32.2211 -86.3152 195° South  Level FlightAware Approximate
08:19PM 32.1400 -86.0356 174° South 170 196 6,100  Level Jacksonville Center
08:20PM 32.1791 -86.3048 165° South  Level FlightAware Approximate
08:20PM 32.0900 -86.0289 174° South 172 198 6,100  Level Jacksonville Center
08:21PM 32.1371 -86.2915 165° South  Level FlightAware Approximate
08:21PM 32.0444 -86.0222 173° South 172 198 6,100  Level Jacksonville Center
08:22PM 32.0950 -86.2782 165° South  Level FlightAware Approximate
08:22PM 31.9944 -86.0158 174° South 171 197 6,100  Level Jacksonville Center
08:23PM 32.0529 -86.2649 165° South  Level FlightAware Approximate
08:23PM 31.9486 -86.0092 173° South 173 199 6,100  Level Jacksonville Center
08:24PM 31.8986 -86.0028 174° South 174 200 6,100  Level Jacksonville Center
08:25PM 31.8508 -85.9961 173° South 173 199 6,100  Level Jacksonville Center
08:26PM 31.7925 -85.9894 174° South 174 200 6,100  Level Jacksonville Center
08:27PM 31.7428 -85.9828 173° South 173 199 6,100  Level Jacksonville Center
08:28PM 31.7053 -85.9767 172° South 174 200 6,100  Level Jacksonville Center
08:29PM 31.6553 -85.9703 174° South 173 199 6,100  Level Jacksonville Center
08:30PM 31.6094 -85.9614 171° South 171 197 6,100  Level Jacksonville Center
08:31PM 31.5617 -85.9572 176° South 168 193 6,100  Level Jacksonville Center
08:32PM 31.5139 -85.9508 173° South 166 191 6,100  Level Jacksonville Center
08:33PM 31.4575 -85.9417 172° South 173 199 6,100  Level Jacksonville Center
08:34PM 31.4119 -85.9353 173° South 173 199 6,100  Level Jacksonville Center
08:35PM 31.3661 -85.9289 173° South 170 196 6,100  Level Jacksonville Center
08:36PM 31.3181 -85.9225 174° South 167 192 6,100  Level Jacksonville Center
08:37PM 31.2744 -85.9189 176° South 166 191 6,100  Level Jacksonville Center
08:38PM 31.2328 -85.9125 173° South 167 192 6,100  Level Jacksonville Center
08:39PM 31.1786 -85.9058 174° South 167 192 6,100  Level Jacksonville Center
08:40PM 31.1308 -85.8972 171° South 168 193 6,100  Level Jacksonville Center
08:41PM 31.0872 -85.8908 173° South 167 192 6,100  Level Jacksonville Center
08:42PM 31.0372 -85.8869 176° South 168 193 6,100  Level Jacksonville Center
08:43PM 30.9978 -85.8808 172° South 169 194 6,100  Level Jacksonville Center
08:45PM 30.9339 -85.8700 172° South  Level FlightAware Approximate
08:52PM 30.6283 -85.8231 173° South  Level FlightAware Approximate
08:53PM 30.5846 -85.8168 173° South  Level FlightAware Approximate
08:54PM 30.5409 -85.8105 173° South  Level FlightAware Approximate
08:55PM 30.4972 -85.8043 173° South  Level FlightAware Approximate
08:56PM 30.4535 -85.7981 173° South  Level FlightAware Approximate
08:57PM 30.4098 -85.7918 173° South  Level FlightAware Approximate
08:58PM 30.3661 -85.7856 173° South  Level FlightAware Approximate
08:59PM 30.3500 -85.7833 173° South  Level FlightAware Approximate
09:00PM 30.3582 -85.7956 173° South  Level Estimated
09:01PM 30.3582 -85.7956 173° South  Level Estimated
09:02PM 30.3582 -85.7956 173° South  Level Estimated
09:03PM 30.3582 -85.7956 173° South  Level Estimated
09:04PM 30.3582 -85.7956 173° South  Level Estimated
09:05PM 30.3582 -85.7956 173° South  Level Estimated
09:06PM 30.3582 -85.7956 173° South  Level Estimated
09:07PM 30.3582 -85.7956 173° South  Level Estimated
09:08PM 30.3582 -85.7956 173° South  Level Estimated
09:09PM 30.3582 -85.7956 173° South  Level Estimated
09:10PM 30.3582 -85.7956 173° South  Level Estimated
09:11PM 30.3582 -85.7956 173° South  Level Estimated
09:12PM 30.3582 -85.7956 173° South  Level Estimated
09:13PM 30.3582 -85.7956 173° South  Level Estimated
09:14PM 30.3582 -85.7956 173° South  Level Estimated
09:15PM 30.3582 -85.7956 173° South  Level Estimated